Latest Coastal Weather Observations for Yeppoon

IDQ60701

Issued at 6:02 am EST Saturday 1 October 2016 (issued every 10 minutes, with the page automatically refreshed every 10 minutes)

About coastal observations | Map of coastal stations | Coastal observations for QLD | Marine services | Other Formats
Station Details ID: 033294 Name: YEPPOON THE ESPLANADE Lat: -23.14 Lon: 150.75 Height: 5.5 m
Data from the previous 72 hours. | See also: Recent months at Yeppoon
Date/Time
EST
Temp
°C
Wind Pressure Rain since
9am
mm
Weather Cloud Vis
km
Sea
Height
m
Swell
Dir  Spd
kts
Gust
kts
hPa Trend Height
m
Period
s
Dir
01/06:00am 11.0 W 11 13 1013.8 - 0.0 - - - - - - -
01/05:30am 9.8 W 8 9 1013.1 - 0.0 - - - - - - -
01/05:00am 9.0 W 8 9 1012.6 - 0.0 - - - - - - -
01/04:30am 8.6 WNW 10 11 1011.9 - 0.0 - - - - - - -
01/04:00am 9.0 W 9 10 1011.3 - 0.0 - - - - - - -
01/03:30am 7.9 W 9 10 1011.1 - 0.0 - - - - - - -
01/03:00am 8.4 WNW 9 10 1011.2 - 0.0 - - - - - - -
01/02:30am 9.8 WNW 9 10 1011.1 - 0.0 - - - - - - -
01/02:00am 11.3 W 9 10 1011.4 - 0.0 - - - - - - -
01/01:30am 10.7 W 9 10 1011.7 - 0.0 - - - - - - -
01/01:00am 11.2 W 9 10 1011.9 - 0.0 - - - - - - -
01/12:30am 11.6 W 6 8 1012.1 - 0.0 - - - - - - -
01/12:00am 11.7 W 7 8 1011.9 - 0.0 - - - - - - -
 
Date/Time
EST
Temp
°C
Wind Pressure Rain since
9am
mm
Weather Cloud Vis
km
Sea
Height
m
Swell
Dir  Spd
kts
Gust
kts
hPa Trend Height
m
Period
s
Dir
30/11:30pm 12.1 W 7 9 1012.0 - 0.0 - - - - - - -
30/11:00pm 12.1 W 7 8 1012.1 - 0.0 - - - - - - -
30/10:30pm 12.6 W 6 7 1012.2 - 0.0 - - - - - - -
30/10:00pm 12.9 W 4 5 1012.2 - 0.0 - - - - - - -
30/09:30pm 13.5 W 5 7 1012.1 - 0.0 - - - - - - -
30/09:00pm 14.3 W 5 7 1011.9 - 0.0 - - - - - - -
30/08:30pm 14.8 W 5 7 1011.5 - 0.0 - - - - - - -
30/08:00pm 15.4 W 4 5 1011.3 - 0.0 - - - - - - -
30/07:30pm 16.3 W 6 7 1010.8 - 0.0 - - - - - - -
30/07:00pm 17.4 WSW 5 5 1010.4 - 0.0 - - - - - - -
30/06:30pm 19.4 WSW 3 4 1010.2 - 0.0 - - - - - - -
30/06:00pm 21.8 WSW 3 5 1009.8 - 0.0 - - - - - - -
30/05:30pm 24.1 WSW 7 10 1009.2 - 0.0 - - - - - - -
30/05:00pm 24.8 WSW 11 15 1008.7 - 0.0 - - - - - - -
30/04:30pm 25.3 W 10 16 1008.4 - 0.0 - - - - - - -
30/04:00pm 25.3 W 12 20 1008.0 - 0.0 - - - - - - -
30/03:30pm 25.6 W 10 19 1007.8 - 0.0 - - - - - - -
30/03:00pm 25.7 W 12 19 1007.7 - 0.0 - - - - - - -
30/02:30pm 25.4 W 13 19 1007.9 - 0.0 - - - - - - -
30/02:00pm 25.3 W 12 18 1008.4 - 0.0 - - - - - - -
30/01:30pm 25.3 W 10 15 1008.6 - 0.0 - - - - - - -
30/01:00pm 24.7 W 12 17 1009.2 - 0.0 - - - - - - -
30/12:30pm 24.0 WSW 13 20 1009.5 - 0.0 - - - - - - -
30/12:00pm 23.8 WSW 12 23 1009.9 - 0.0 - - - - - - -
30/11:30am 23.1 W 14 23 1010.5 - 0.0 - - - - - - -
30/11:00am 23.3 W 12 19 1010.9 - 0.0 - - - - - - -
30/10:30am 23.2 WNW 11 18 1010.9 - 0.0 - - - - - - -
30/10:00am 22.5 W 13 19 1011.0 - 0.0 - - - - - - -
30/09:30am 22.0 W 11 17 1010.9 - 0.0 - - - - - - -
30/09:00am 21.5 W 13 18 1010.7 - 0.4 - - - - - - -
30/08:30am 21.2 W 12 19 1010.3 - 0.4 - - - - - - -
30/08:00am 21.5 W 14 19 1010.1 - 0.4 - - - - - - -
30/07:30am 21.1 W 10 14 1009.5 - 0.4 - - - - - - -
30/07:00am 20.0 W 6 10 1009.0 - 0.4 - - - - - - -
30/06:30am 19.3 W 8 11 1008.5 - 0.4 - - - - - - -
30/06:00am 19.1 W 6 9 1008.2 - 0.4 - - - - - - -
30/05:30am 19.9 W 7 10 1007.8 - 0.4 - - - - - - -
30/05:00am 20.0 WNW 4 6 1007.4 - 0.4 - - - - - - -
30/04:30am 20.5 NW 5 6 1007.2 - 0.4 - - - - - - -
30/04:00am 20.9 NNW 5 8 1007.1 - 0.0 - - - - - - -
30/03:30am 20.8 NNW 5 7 1006.8 - 0.0 - - - - - - -
30/03:00am 20.7 N 5 7 1006.9 - 0.0 - - - - - - -
30/02:30am 20.7 N 7 9 1007.1 - 0.0 - - - - - - -
30/02:00am 20.9 N 7 10 1007.4 - 0.0 - - - - - - -
30/01:30am 20.9 N 8 11 1007.9 - 0.0 - - - - - - -
30/01:00am 20.5 N 8 10 1008.2 - 0.0 - - - - - - -
30/12:30am 20.4 N 6 8 1008.7 - 0.0 - - - - - - -
30/12:00am 20.8 N 10 13 1009.2 - 0.0 - - - - - - -
 
Date/Time
EST
Temp
°C
Wind Pressure Rain since
9am
mm
Weather Cloud Vis
km
Sea
Height
m
Swell
Dir  Spd
kts
Gust
kts
hPa Trend Height
m
Period
s
Dir
29/11:30pm 20.8 N 9 10 1009.2 - 0.0 - - - - - - -
29/11:00pm 20.7 N 6 8 1009.6 - 0.0 - - - - - - -
29/10:30pm 20.7 N 5 7 1009.5 - 0.0 - - - - - - -
29/10:00pm 20.5 NNW 4 15 1009.4 - 0.0 - - - - - - -
29/09:30pm 20.9 NNE 13 16 1008.6 - 0.0 - - - - - - -
29/09:00pm 21.1 N 8 13 1008.8 - 0.0 - - - - - - -
29/08:30pm 21.4 NNE 9 13 1009.3 - 0.0 - - - - - - -
29/08:00pm 21.6 N 6 9 1009.1 - 0.0 - - - - - - -
29/07:30pm 21.3 N 2 6 1008.6 - 0.0 - - - - - - -
29/07:00pm 21.5 NNW 7 11 1008.1 - 0.0 - - - - - - -
29/06:30pm 21.5 NNW 10 14 1007.8 - 0.0 - - - - - - -
29/06:00pm 21.6 N 14 21 1006.9 - 0.0 - - - - - - -
29/05:30pm 21.9 N 15 19 1006.9 - 0.0 - - - - - - -
29/05:00pm 22.1 N 13 18 1006.7 - 0.0 - - - - - - -
29/04:30pm 22.3 N 12 15 1006.8 - 0.0 - - - - - - -
29/04:00pm 22.3 N 10 13 1006.8 - 0.0 - - - - - - -
29/03:30pm 22.4 N 11 14 1007.0 - 0.0 - - - - - - -
29/03:00pm 22.5 N 10 11 1006.9 - 0.0 - - - - - - -
29/02:30pm 22.6 N 11 13 1007.1 - 0.0 - - - - - - -
29/02:00pm 22.7 N 9 13 1007.5 - 0.0 - - - - - - -
29/01:30pm 23.0 N 7 11 1008.4 - 0.0 - - - - - - -
29/01:00pm 22.2 N 11 14 1008.4 - 0.0 - - - - - - -
29/12:30pm 22.4 N 12 16 1009.0 - 0.0 - - - - - - -
29/12:00pm 22.6 N 11 14 1009.3 - 0.0 - - - - - - -
29/11:30am 23.1 NNW 8 13 1009.8 - 0.0 - - - - - - -
29/11:00am 22.8 NNW 7 13 1010.3 - 0.0 - - - - - - -
29/10:30am 22.9 N 6 13 1010.8 - 0.0 - - - - - - -
29/10:00am 22.5 N 13 19 1010.8 - 0.0 - - - - - - -
29/09:30am 22.2 N 11 16 1011.0 - 0.0 - - - - - - -
29/09:00am 22.0 NNW 10 16 1011.2 - 0.0 - - - - - - -
29/08:30am 21.2 N 8 11 1011.6 - 0.0 - - - - - - -
29/08:00am 20.5 N 8 12 1011.4 - 0.0 - - - - - - -
29/07:30am 19.7 N 6 10 1010.8 - 0.0 - - - - - - -
29/07:00am 19.2 N 6 11 1010.6 - 0.0 - - - - - - -
29/06:30am 19.2 N 7 13 1010.5 - 0.0 - - - - - - -
29/06:00am 18.9 N 7 10 1010.5 - 0.0 - - - - - - -
29/05:30am 19.2 N 7 10 1010.9 - 0.0 - - - - - - -
29/05:00am 17.9 NNW 5 9 1011.1 - 0.0 - - - - - - -
29/04:30am 17.3 WNW 5 6 1010.9 - 0.0 - - - - - - -
29/04:00am 17.8 W 4 5 1010.9 - 0.0 - - - - - - -
29/03:30am 18.2 W 4 5 1010.5 - 0.0 - - - - - - -
29/03:00am 19.4 NW 6 9 1010.9 - 0.0 - - - - - - -
29/02:30am 19.7 N 7 11 1010.9 - 0.0 - - - - - - -
29/02:00am 19.5 NNW 5 8 1011.1 - 0.0 - - - - - - -
29/01:30am 19.3 N 6 9 1011.6 - 0.0 - - - - - - -
29/01:00am 16.0 CALM 0 0 1011.8 - 0.0 - - - - - - -
29/12:30am 16.1 NW 2 3 1012.0 - 0.0 - - - - - - -
29/12:00am 16.9 NW 3 6 1012.7 - 0.0 - - - - - - -
 
Date/Time
EST
Temp
°C
Wind Pressure Rain since
9am
mm
Weather Cloud Vis
km
Sea
Height
m
Swell
Dir  Spd
kts
Gust
kts
hPa Trend Height
m
Period
s
Dir
28/11:30pm 16.9 NW 4 5 1013.2 - 0.0 - - - - - - -
28/11:00pm 17.3 NW 1 3 1013.0 - 0.0 - - - - - - -
28/10:30pm 18.5 NW 4 6 1013.6 - 0.0 - - - - - - -
28/10:00pm 19.6 NNW 9 13 1013.0 - 0.0 - - - - - - -
28/09:30pm 19.7 NNW 10 19 1013.2 - 0.0 - - - - - - -
28/09:00pm 19.3 N 8 13 1012.9 - 0.0 - - - - - - -
28/08:30pm 19.6 N 9 15 1012.9 - 0.0 - - - - - - -
28/08:00pm 19.8 N 8 12 1013.1 - 0.0 - - - - - - -
28/07:30pm 19.7 N 9 13 1012.7 - 0.0 - - - - - - -
28/07:00pm 20.0 N 9 12 1012.5 - 0.0 - - - - - - -
28/06:30pm 20.0 N 8 10 1012.5 - 0.0 - - - - - - -
28/06:00pm 20.6 N 12 14 1012.2 - 0.0 - - - - - - -
28/05:30pm 21.7 NNE 17 19 1012.0 - 0.0 - - - - - - -
28/05:00pm 21.9 NNE 16 18 1011.9 - 0.0 - - - - - - -
28/04:30pm 22.1 NNE 14 17 1012.0 - 0.0 - - - - - - -
28/04:00pm 22.5 NNE 13 16 1011.8 - 0.0 - - - - - - -
28/03:30pm 22.5 NNE 13 15 1011.7 - 0.0 - - - - - - -
28/03:00pm 22.8 NNE 13 15 1012.0 - 0.0 - - - - - - -
28/02:30pm 22.7 NNE 11 12 1012.3 - 0.0 - - - - - - -
28/02:00pm 23.0 NNE 9 12 1012.6 - 0.0 - - - - - - -
28/01:30pm 23.0 NNE 10 11 1013.2 - 0.0 - - - - - - -
28/01:00pm 22.9 NNE 10 12 1013.7 - 0.0 - - - - - - -
28/12:30pm 22.8 NNE 8 11 1013.8 - 0.0 - - - - - - -
28/12:00pm 22.4 NE 6 7 1014.5 - 0.0 - - - - - - -
28/11:30am 22.4 NE 5 7 1014.6 - 0.0 - - - - - - -
28/11:00am 22.2 ENE 5 6 1015.2 - 0.0 - - - - - - -
28/10:30am 22.2 ENE 5 6 1015.5 - 0.0 - - - - - - -
28/10:00am 22.2 E 5 6 1015.8 - 0.0 - - - - - - -
28/09:30am 21.9 E 6 7 1015.8 - 0.0 - - - - - - -
28/09:00am 21.6 SSE 4 5 1016.3 - 0.0 - - - - - - -
28/08:30am 21.4 WSW 2 6 1016.0 - 0.0 - - - - - - -
28/08:00am 19.3 W 3 4 1016.1 - 0.0 - - - - - - -
28/07:30am 16.6 W 5 8 1015.7 - 0.0 - - - - - - -
28/07:00am 14.5 W 6 7 1015.3 - 0.0 - - - - - - -
28/06:30am 11.8 W 7 9 1014.9 - 0.0 - - - - - - -

Other Formats:

Comma delimited format used in spreadsheet applications
http://www.bom.gov.au/fwo/IDQ60701/IDQ60701.94373.axf

JavaScript Object Notation format (JSON) in row-major order
http://www.bom.gov.au/fwo/IDQ60701/IDQ60701.94373.json